Time;durP1;ratioP1;P1;durP2;ratioP2;P2;SDS_P1;SDS_P2;PMS_P1;PMS_P2;Temp;Humidity;BMP_temperature;BMP_pressure;BME280_temperature;BME280_humidity;BME280_pressure;Samples;Min_cycle;Max_cycle;Signal;HPM_P1;HPM_P2
2023/02/13 00:00:05;;;;;;;12.83;7.27;;;6.90;99.90;;;;;;5074554;28;20198;-81
2023/02/13 00:02:31;;;;;;;14.17;7.47;;;6.90;99.90;;;;;;5074311;28;20268;-81
2023/02/13 00:04:58;;;;;;;13.17;7.60;;;6.80;99.90;;;;;;5073888;28;20285;-81
2023/02/13 00:07:25;;;;;;;15.33;9.03;;;6.80;99.90;;;;;;5083718;28;20203;-81
2023/02/13 00:09:52;;;;;;;15.37;8.50;;;6.80;99.90;;;;;;5073645;28;20202;-81
2023/02/13 00:12:20;;;;;;;15.23;8.90;;;6.90;99.90;;;;;;5073845;28;20694;-82
2023/02/13 00:14:47;;;;;;;16.93;9.97;;;6.90;99.90;;;;;;5089622;28;20193;-82
2023/02/13 00:17:13;;;;;;;19.30;10.90;;;6.90;99.90;;;;;;5094427;28;20580;-82
2023/02/13 00:19:40;;;;;;;18.33;10.03;;;6.80;99.90;;;;;;5092230;28;20549;-81
2023/02/13 00:22:07;;;;;;;17.33;9.93;;;6.80;99.90;;;;;;5094105;28;20218;-81
2023/02/13 00:24:34;;;;;;;17.60;10.53;;;6.80;99.90;;;;;;5093243;28;20206;-82
2023/02/13 00:27:01;;;;;;;16.30;9.90;;;6.80;99.90;;;;;;5077373;28;20201;-81
2023/02/13 00:29:29;;;;;;;18.03;10.87;;;6.80;99.90;;;;;;5071068;28;20226;-81
2023/02/13 00:31:55;;;;;;;19.43;10.57;;;6.90;99.90;;;;;;5073571;28;20222;-81
2023/02/13 00:34:22;;;;;;;16.93;9.53;;;6.90;99.90;;;;;;5073683;28;20198;-81
2023/02/13 00:36:49;;;;;;;17.90;9.80;;;6.90;99.90;;;;;;5084439;28;20197;-81
2023/02/13 00:39:17;;;;;;;15.53;8.87;;;6.90;99.90;;;;;;5092066;28;20203;-81
2023/02/13 00:41:44;;;;;;;16.97;9.97;;;6.90;99.90;;;;;;5087991;28;20222;-81
2023/02/13 00:44:11;;;;;;;17.93;10.63;;;6.90;99.90;;;;;;5086988;28;20658;-81
2023/02/13 00:46:39;;;;;;;17.57;9.67;;;6.90;99.90;;;;;;5092847;28;20741;-82
2023/02/13 00:49:07;;;;;;;16.00;9.90;;;6.80;99.90;;;;;;5093041;28;20217;-81
2023/02/13 00:51:34;;;;;;;16.63;9.67;;;6.70;99.90;;;;;;5083681;28;20222;-82
2023/02/13 00:54:01;;;;;;;15.20;9.23;;;6.70;99.90;;;;;;5083309;28;20198;-81
2023/02/13 00:56:28;;;;;;;18.13;10.63;;;6.80;99.90;;;;;;5083338;28;20198;-81
2023/02/13 00:58:55;;;;;;;17.47;9.83;;;6.80;99.90;;;;;;5073474;28;20198;-81
2023/02/13 01:01:21;;;;;;;17.20;10.00;;;6.80;99.90;;;;;;5089970;28;20228;-82
2023/02/13 01:03:49;;;;;;;16.80;9.53;;;6.80;99.90;;;;;;5092238;28;20199;-81
2023/02/13 01:06:16;;;;;;;17.87;10.07;;;6.80;99.90;;;;;;5078002;28;20218;-81
2023/02/13 01:08:43;;;;;;;17.47;10.00;;;6.80;99.90;;;;;;5080087;28;20225;-81
2023/02/13 01:11:10;;;;;;;16.57;10.13;;;6.80;99.90;;;;;;5071845;28;20225;-81
2023/02/13 01:13:37;;;;;;;18.57;9.80;;;6.80;99.90;;;;;;5075805;28;20646;-82
2023/02/13 01:16:04;;;;;;;16.23;9.57;;;6.80;99.90;;;;;;5091720;28;20204;-81
2023/02/13 01:18:30;;;;;;;17.30;9.10;;;6.80;99.90;;;;;;5081801;28;20198;-81
2023/02/13 01:21:00;;;;;;;17.23;9.87;;;6.90;99.90;;;;;;5072423;28;20202;-81
2023/02/13 01:23:30;;;;;;;15.63;9.07;;;6.80;99.90;;;;;;5073493;28;20232;-82
2023/02/13 01:25:57;;;;;;;15.77;9.30;;;6.90;99.90;;;;;;5084640;28;20201;-81
2023/02/13 01:28:24;;;;;;;15.07;9.03;;;6.90;99.90;;;;;;5094009;28;20232;-81
2023/02/13 01:30:54;;;;;;;15.67;8.30;;;6.80;99.90;;;;;;5093090;28;20687;-81
2023/02/13 01:33:22;;;;;;;14.87;8.77;;;6.80;99.90;;;;;;5093275;28;20229;-82
2023/02/13 01:35:48;;;;;;;13.50;7.97;;;6.80;99.90;;;;;;5093367;28;20202;-81
2023/02/13 01:38:17;;;;;;;13.17;8.00;;;6.70;99.90;;;;;;5092544;28;20216;-81
2023/02/13 01:40:47;;;;;;;13.57;8.30;;;6.90;99.90;;;;;;5093522;28;20201;-82
2023/02/13 01:43:14;;;;;;;13.10;8.03;;;6.90;99.90;;;;;;5092329;28;20225;-81
2023/02/13 01:45:44;;;;;;;16.10;9.03;;;6.80;99.90;;;;;;5092947;28;20209;-81
2023/02/13 01:48:16;;;;;;;16.50;9.00;;;6.70;99.90;;;;;;5091386;28;20207;-81
2023/02/13 01:50:46;;;;;;;14.47;7.50;;;6.80;99.90;;;;;;5091378;28;20229;-82
2023/02/13 01:53:16;;;;;;;18.10;9.03;;;6.80;99.90;;;;;;5092997;28;20329;-81
2023/02/13 01:55:49;;;;;;;17.20;8.80;;;6.90;99.90;;;;;;5092316;28;20198;-81
2023/02/13 01:58:20;;;;;;;16.73;9.57;;;6.90;99.90;;;;;;5075582;28;20575;-82
2023/02/13 02:00:48;;;;;;;15.40;8.63;;;6.90;99.90;;;;;;5075492;28;20213;-82
2023/02/13 02:03:20;;;;;;;17.70;8.70;;;6.90;99.90;;;;;;5074651;28;20233;-81
2023/02/13 02:05:49;;;;;;;14.90;8.90;;;6.90;99.90;;;;;;5074710;28;20202;-81
2023/02/13 02:08:16;;;;;;;14.90;7.90;;;6.90;99.90;;;;;;5075847;28;20221;-81
2023/02/13 02:10:44;;;;;;;17.37;9.13;;;6.90;99.90;;;;;;5075181;28;20217;-81
2023/02/13 02:13:13;;;;;;;16.07;8.80;;;7.00;99.90;;;;;;5076228;28;20701;-81
2023/02/13 02:15:41;;;;;;;16.10;8.67;;;6.90;99.90;;;;;;5076805;28;20202;-82
2023/02/13 02:18:14;;;;;;;14.73;8.33;;;6.90;99.90;;;;;;5074572;28;20209;-81
2023/02/13 02:21:14;;;;;;;15.70;8.33;;;7.00;99.90;;;;;;5075674;28;20547;-81
2023/02/13 02:24:02;;;;;;;16.77;9.00;;;7.00;99.90;;;;;;5075684;28;20248;-81
2023/02/13 02:26:58;;;;;;;15.83;8.63;;;6.90;99.90;;;;;;5075245;28;20558;-82
2023/02/13 02:30:11;;;;;;;17.67;9.23;;;7.00;99.90;;;;;;5075520;28;20222;-81
2023/02/13 02:33:03;;;;;;;16.47;8.90;;;6.90;99.90;;;;;;4995096;28;20263;-81
2023/02/13 02:35:41;;;;;;;14.43;7.90;;;6.90;99.90;;;;;;5002779;28;20211;-81
2023/02/13 02:38:26;;;;;;;15.40;8.00;;;7.00;99.90;;;;;;5068957;28;20206;-81
2023/02/13 02:41:01;;;;;;;16.13;7.90;;;6.90;99.90;;;;;;5075992;28;20198;-81
2023/02/13 02:43:44;;;;;;;16.23;8.67;;;7.00;99.90;;;;;;5075649;28;20597;-81
2023/02/13 02:46:17;;;;;;;14.03;7.30;;;7.00;99.90;;;;;;5094314;28;20213;-81
2023/02/13 02:51:45;;;;;;;15.97;8.80;;;6.90;99.90;;;;;;5085440;28;20229;-81
2023/02/13 02:57:07;;;;;;;13.30;7.77;;;6.80;99.90;;;;;;5083831;28;20214;-81
2023/02/13 03:08:04;;;;;;;14.90;7.50;;;7.00;99.90;;;;;;5075041;28;20697;-81
2023/02/13 03:13:34;;;;;;;16.23;9.00;;;7.00;99.90;;;;;;5075273;28;20217;-81
2023/02/13 03:24:40;;;;;;;15.63;8.10;;;6.80;99.90;;;;;;5095393;28;20205;-81
2023/02/13 03:27:11;;;;;;;15.47;8.03;;;6.80;99.90;;;;;;5084529;28;20209;-81
2023/02/13 03:32:37;;;;;;;16.40;8.57;;;6.90;99.90;;;;;;5082434;28;20310;-81
2023/02/13 03:38:14;;;;;;;15.20;7.53;;;6.70;99.90;;;;;;5095762;28;20202;-80
2023/02/13 03:43:32;;;;;;;16.50;8.43;;;6.90;99.90;;;;;;5077497;28;20599;-81
2023/02/13 03:46:01;;;;;;;16.23;8.30;;;6.90;99.90;;;;;;5074255;28;20206;-82
2023/02/13 03:51:21;;;;;;;14.53;8.07;;;6.80;99.90;;;;;;5074533;28;20185;-81
2023/02/13 03:53:54;;;;;;;14.37;7.43;;;6.80;99.90;;;;;;5074584;28;20206;-81
2023/02/13 03:59:18;;;;;;;14.90;6.90;;;6.80;99.90;;;;;;5073944;28;20553;-81
2023/02/13 04:01:51;;;;;;;13.60;6.97;;;6.80;99.90;;;;;;5074667;28;20218;-81
2023/02/13 04:04:23;;;;;;;15.87;7.67;;;6.80;99.90;;;;;;5074064;28;20187;-81
2023/02/13 04:06:55;;;;;;;13.00;6.60;;;6.70;99.90;;;;;;5073771;28;20198;-81
2023/02/13 04:09:23;;;;;;;14.50;7.47;;;6.80;99.90;;;;;;5073536;28;20210;-81
2023/02/13 04:11:56;;;;;;;13.73;6.63;;;6.80;99.90;;;;;;5093834;28;20217;-81
2023/02/13 04:14:27;;;;;;;15.57;7.77;;;6.70;99.90;;;;;;5094863;28;20189;-81
2023/02/13 04:17:02;;;;;;;15.17;7.17;;;6.90;99.90;;;;;;5091143;28;20902;-85
2023/02/13 04:19:29;;;;;;;13.43;6.63;;;6.90;99.90;;;;;;5072869;28;20182;-81
2023/02/13 04:21:58;;;;;;;14.53;7.60;;;6.90;99.90;;;;;;5073361;28;20230;-79
2023/02/13 04:24:27;;;;;;;15.97;8.10;;;6.90;99.90;;;;;;5074339;28;20214;-81
2023/02/13 04:26:55;;;;;;;16.13;8.47;;;6.90;99.90;;;;;;5075637;28;20213;-80
2023/02/13 04:29:23;;;;;;;18.53;7.43;;;6.90;99.90;;;;;;5074472;28;20305;-79
2023/02/13 04:31:50;;;;;;;13.50;6.67;;;6.90;99.90;;;;;;5089417;28;20218;-82
2023/02/13 04:34:17;;;;;;;13.70;6.80;;;6.90;99.90;;;;;;5093105;28;20210;-81
2023/02/13 04:36:44;;;;;;;13.97;6.87;;;6.90;99.90;;;;;;5089649;28;20750;-81
2023/02/13 04:39:11;;;;;;;12.50;6.50;;;6.90;99.90;;;;;;5090786;28;20544;-81
2023/02/13 04:41:39;;;;;;;16.43;7.83;;;6.90;99.90;;;;;;5091048;28;20233;-81
2023/02/13 04:44:06;;;;;;;12.97;6.13;;;6.90;99.90;;;;;;5090386;28;20206;-81
2023/02/13 04:46:33;;;;;;;13.20;6.03;;;7.00;99.90;;;;;;5090642;28;20194;-81
2023/02/13 04:49:00;;;;;;;12.50;6.30;;;7.00;99.90;;;;;;5090863;28;20212;-81
2023/02/13 04:51:26;;;;;;;12.50;6.50;;;7.00;99.90;;;;;;5092802;28;20201;-81
2023/02/13 04:53:53;;;;;;;13.00;5.67;;;6.90;99.90;;;;;;5092983;28;20204;-81
2023/02/13 04:56:20;;;;;;;10.20;5.70;;;7.00;99.90;;;;;;5092950;28;20283;-81
2023/02/13 04:58:48;;;;;;;11.20;5.60;;;7.00;99.90;;;;;;5093008;28;20208;-81
2023/02/13 05:01:16;;;;;;;10.03;4.90;;;7.00;99.90;;;;;;5093244;28;20676;-81
2023/02/13 05:03:43;;;;;;;8.93;5.23;;;7.00;99.90;;;;;;5093404;28;20211;-81
2023/02/13 05:06:10;;;;;;;10.37;5.73;;;7.00;99.90;;;;;;5092930;28;20284;-81
2023/02/13 05:08:37;;;;;;;11.07;5.83;;;7.00;99.90;;;;;;5093268;28;20208;-81
2023/02/13 05:11:04;;;;;;;8.43;4.73;;;7.00;99.90;;;;;;5092824;28;20229;-81
2023/02/13 05:13:31;;;;;;;9.80;5.13;;;7.00;99.90;;;;;;5092946;28;20303;-81
2023/02/13 05:15:59;;;;;;;8.33;4.63;;;7.00;99.90;;;;;;5093076;28;20564;-81
2023/02/13 05:18:26;;;;;;;10.03;5.17;;;7.00;99.90;;;;;;5092889;28;20198;-81
2023/02/13 05:23:37;;;;;;;9.77;4.90;;;7.10;99.90;;;;;;5092673;28;20231;-81
2023/02/13 05:26:04;;;;;;;8.53;4.40;;;7.00;99.90;;;;;;5092809;28;20217;-81
2023/02/13 05:31:17;;;;;;;9.07;4.47;;;7.00;99.90;;;;;;5092606;28;20212;-81
2023/02/13 05:33:44;;;;;;;6.90;3.57;;;7.10;99.90;;;;;;5093704;28;20209;-81
2023/02/13 05:36:10;;;;;;;6.83;3.83;;;7.10;99.90;;;;;;5097083;28;20262;-81
2023/02/13 05:38:37;;;;;;;6.17;3.63;;;7.20;99.90;;;;;;5096438;28;20205;-81
2023/02/13 05:41:04;;;;;;;8.03;3.90;;;7.20;99.90;;;;;;5096608;28;20687;-81
2023/02/13 05:43:31;;;;;;;6.10;3.13;;;7.20;99.90;;;;;;5096378;28;20228;-81
2023/02/13 05:46:02;;;;;;;5.53;3.20;;;7.20;99.90;;;;;;5096482;28;20570;-81
2023/02/13 05:48:31;;;;;;;5.43;2.97;;;7.20;99.90;;;;;;5096408;28;20210;-81
2023/02/13 05:50:57;;;;;;;4.63;2.70;;;7.20;99.90;;;;;;5096545;28;20213;-81
2023/02/13 05:53:24;;;;;;;4.97;3.13;;;7.20;99.90;;;;;;5096253;28;20232;-81
2023/02/13 05:55:52;;;;;;;5.53;3.00;;;7.20;99.90;;;;;;5096410;28;20212;-82
2023/02/13 05:58:18;;;;;;;5.00;2.93;;;7.10;99.90;;;;;;5096519;28;20205;-81
2023/02/13 06:00:46;;;;;;;5.90;3.43;;;7.10;99.90;;;;;;5096335;28;20212;-81
2023/02/13 06:03:12;;;;;;;6.57;2.93;;;7.10;99.90;;;;;;5096255;28;20217;-81
2023/02/13 06:05:41;;;;;;;5.00;2.83;;;7.10;99.90;;;;;;5096335;28;20198;-81
2023/02/13 06:08:07;;;;;;;4.27;2.50;;;7.10;99.90;;;;;;5096435;28;20210;-81
2023/02/13 06:10:34;;;;;;;5.57;2.30;;;7.10;99.90;;;;;;5096389;28;20228;-81
2023/02/13 06:13:01;;;;;;;4.93;2.40;;;7.10;99.90;;;;;;5096071;28;20209;-81
2023/02/13 06:15:28;;;;;;;5.70;2.60;;;7.20;99.90;;;;;;5096315;28;20205;-81
2023/02/13 06:17:55;;;;;;;4.10;2.33;;;7.10;99.90;;;;;;5095587;28;20205;-81
2023/02/13 06:20:21;;;;;;;2.90;2.00;;;7.10;99.90;;;;;;5094613;28;20351;-81
2023/02/13 06:22:50;;;;;;;3.10;2.00;;;7.20;99.90;;;;;;5099319;28;20209;-81
2023/02/13 06:25:17;;;;;;;3.70;2.20;;;7.20;99.90;;;;;;5115095;28;20574;-81
2023/02/13 06:27:44;;;;;;;3.17;2.23;;;7.20;99.90;;;;;;5084596;28;20201;-81
2023/02/13 06:30:12;;;;;;;3.33;1.90;;;7.20;99.90;;;;;;5080986;28;20227;-81
2023/02/13 06:32:39;;;;;;;4.47;2.10;;;7.20;99.90;;;;;;5114421;28;20220;-81
2023/02/13 06:35:07;;;;;;;4.10;2.30;;;7.10;99.90;;;;;;5107575;28;20196;-81
2023/02/13 06:37:34;;;;;;;2.10;1.70;;;7.10;99.90;;;;;;5094331;28;20221;-81
2023/02/13 06:40:02;;;;;;;2.90;2.13;;;7.10;99.90;;;;;;5094885;28;20296;-81
2023/02/13 06:42:29;;;;;;;3.07;1.97;;;7.10;99.90;;;;;;5093964;28;20222;-81
2023/02/13 06:44:55;;;;;;;3.70;2.10;;;7.20;99.90;;;;;;5094163;28;20244;-81
2023/02/13 06:47:22;;;;;;;2.97;1.77;;;7.10;99.90;;;;;;5095229;28;20224;-81
2023/02/13 06:49:49;;;;;;;2.77;1.97;;;7.10;99.90;;;;;;5095466;28;20221;-81
2023/02/13 06:52:16;;;;;;;3.20;2.20;;;7.10;99.90;;;;;;5094989;28;20219;-81
2023/02/13 06:54:43;;;;;;;3.87;2.37;;;7.10;99.90;;;;;;5096467;28;20219;-81
2023/02/13 06:57:11;;;;;;;3.07;2.07;;;7.00;99.90;;;;;;5095064;28;20289;-81
2023/02/13 06:59:38;;;;;;;3.17;2.20;;;7.10;99.90;;;;;;5093494;28;20198;-81
2023/02/13 07:02:05;;;;;;;3.00;2.07;;;7.10;99.90;;;;;;5094581;28;20585;-81
2023/02/13 07:04:31;;;;;;;4.10;2.33;;;7.10;99.90;;;;;;5093895;28;20201;-81
2023/02/13 07:06:58;;;;;;;4.17;2.40;;;7.20;99.90;;;;;;5094764;28;20236;-81
2023/02/13 07:09:25;;;;;;;3.97;2.40;;;7.10;99.90;;;;;;5094286;28;20202;-81
2023/02/13 07:11:52;;;;;;;3.73;2.40;;;7.10;99.90;;;;;;5094463;28;20229;-81
2023/02/13 07:14:20;;;;;;;4.17;2.40;;;7.10;99.90;;;;;;5094159;28;20676;-81
2023/02/13 07:16:46;;;;;;;4.50;2.70;;;7.10;99.90;;;;;;5094274;28;20206;-81
2023/02/13 07:19:13;;;;;;;6.50;3.30;;;7.20;99.90;;;;;;5094784;28;20207;-81
2023/02/13 07:21:40;;;;;;;4.70;2.80;;;7.10;99.90;;;;;;5094193;28;20228;-81
2023/02/13 07:24:07;;;;;;;5.03;2.63;;;7.20;99.90;;;;;;5093970;28;20213;-81
2023/02/13 07:26:34;;;;;;;4.27;2.37;;;7.10;99.90;;;;;;5093899;28;20208;-81
2023/02/13 07:29:04;;;;;;;4.43;2.40;;;7.20;99.90;;;;;;5093762;28;20197;-81
2023/02/13 07:31:33;;;;;;;6.80;3.20;;;7.10;99.90;;;;;;5093109;28;20237;-81
2023/02/13 07:34:00;;;;;;;5.90;3.10;;;7.30;99.90;;;;;;5094092;28;20552;-81
2023/02/13 07:36:27;;;;;;;6.00;3.33;;;7.10;99.90;;;;;;5094395;28;20210;-81
2023/02/13 07:38:53;;;;;;;5.90;3.43;;;7.10;99.90;;;;;;5092821;28;20212;-81
2023/02/13 07:41:24;;;;;;;5.57;3.30;;;7.20;99.90;;;;;;5094121;28;20611;-81
2023/02/13 07:43:51;;;;;;;8.17;3.50;;;7.30;99.90;;;;;;5093421;28;20212;-81
2023/02/13 07:46:18;;;;;;;8.47;4.00;;;7.20;99.90;;;;;;5085906;28;20731;-82
2023/02/13 07:48:46;;;;;;;7.20;4.27;;;7.20;99.90;;;;;;5093216;28;20189;-81
2023/02/13 07:51:13;;;;;;;10.07;4.63;;;7.20;99.90;;;;;;5092616;28;20217;-81
2023/02/13 07:53:39;;;;;;;6.47;3.87;;;7.20;99.90;;;;;;5092945;28;20668;-81
2023/02/13 07:56:07;;;;;;;8.50;4.23;;;7.20;99.90;;;;;;5092960;28;20202;-81
2023/02/13 07:58:34;;;;;;;8.53;4.37;;;7.20;99.90;;;;;;5093754;28;20208;-80
2023/02/13 08:01:06;;;;;;;9.73;4.73;;;7.20;99.90;;;;;;5093173;28;20198;-81
2023/02/13 08:03:33;;;;;;;7.07;4.50;;;7.20;99.90;;;;;;5093204;28;20229;-81
2023/02/13 08:06:01;;;;;;;10.63;5.33;;;7.20;99.90;;;;;;5092627;28;20205;-81
2023/02/13 08:08:28;;;;;;;11.63;6.30;;;7.20;99.90;;;;;;5093293;28;20565;-81
2023/02/13 08:13:40;;;;;;;9.13;5.37;;;7.20;99.90;;;;;;5092379;28;20180;-81
2023/02/13 08:16:07;;;;;;;9.53;5.20;;;7.20;99.90;;;;;;5092591;28;20204;-81
2023/02/13 08:18:34;;;;;;;11.87;5.23;;;7.30;99.90;;;;;;5093150;28;20564;-81
2023/02/13 08:21:03;;;;;;;10.63;6.03;;;7.20;99.90;;;;;;5092504;28;20201;-81
2023/02/13 08:23:30;;;;;;;10.87;5.60;;;7.30;99.90;;;;;;5092983;28;20224;-81
2023/02/13 08:25:59;;;;;;;13.27;5.30;;;7.20;99.90;;;;;;5092567;28;20202;-81
2023/02/13 08:28:26;;;;;;;10.80;5.37;;;7.30;99.90;;;;;;5091721;28;20201;-81
2023/02/13 08:30:53;;;;;;;9.77;5.37;;;7.40;99.90;;;;;;5084475;28;20213;-81
2023/02/13 08:33:20;;;;;;;10.43;5.13;;;7.40;99.90;;;;;;5092505;28;20584;-81
2023/02/13 08:35:47;;;;;;;9.70;5.33;;;7.30;99.90;;;;;;5091537;28;20288;-81
2023/02/13 08:38:15;;;;;;;13.37;6.03;;;7.50;99.90;;;;;;5093569;28;20205;-81
2023/02/13 08:40:42;;;;;;;10.70;5.80;;;7.40;99.90;;;;;;5093104;28;20202;-81
2023/02/13 08:43:09;;;;;;;12.67;6.27;;;7.50;99.90;;;;;;5093502;28;20232;-81
2023/02/13 08:45:36;;;;;;;10.70;6.03;;;7.60;99.90;;;;;;5081622;28;20232;-81
2023/02/13 08:48:03;;;;;;;10.93;6.37;;;7.60;99.90;;;;;;5092240;28;20216;-81
2023/02/13 08:50:30;;;;;;;10.13;5.70;;;7.70;99.90;;;;;;5091684;28;20765;-81
2023/02/13 08:52:58;;;;;;;10.67;6.37;;;7.60;99.90;;;;;;5093047;28;20221;-81
2023/02/13 08:55:27;;;;;;;8.40;5.23;;;7.70;99.90;;;;;;5092191;28;20197;-81
2023/02/13 08:57:54;;;;;;;11.40;6.13;;;7.70;99.90;;;;;;5091783;28;20661;-81
2023/02/13 09:00:21;;;;;;;10.37;5.80;;;7.80;99.90;;;;;;5091828;28;20206;-81
2023/02/13 09:02:48;;;;;;;9.00;5.17;;;7.80;99.90;;;;;;5093009;28;20692;-81
2023/02/13 09:05:15;;;;;;;8.27;5.57;;;7.80;99.90;;;;;;5091916;28;20214;-81
2023/02/13 09:07:42;;;;;;;9.90;5.57;;;7.80;99.90;;;;;;5092472;28;20232;-81
2023/02/13 09:10:09;;;;;;;12.53;5.77;;;7.80;99.90;;;;;;5079945;28;20208;-81
2023/02/13 09:12:37;;;;;;;10.40;5.57;;;7.80;99.90;;;;;;5076941;28;20594;-81
2023/02/13 09:15:05;;;;;;;8.57;4.97;;;7.90;99.90;;;;;;5076617;28;20202;-81
2023/02/13 09:17:32;;;;;;;9.60;5.40;;;7.80;99.90;;;;;;5076890;28;20206;-81
2023/02/13 09:19:59;;;;;;;7.77;4.87;;;7.80;99.90;;;;;;5074613;28;20594;-81
2023/02/13 09:22:25;;;;;;;8.47;5.10;;;8.00;99.90;;;;;;5076319;28;20228;-81
2023/02/13 09:24:52;;;;;;;8.40;4.87;;;8.00;99.90;;;;;;5076501;28;20206;-81
2023/02/13 09:27:19;;;;;;;7.70;4.67;;;7.90;99.90;;;;;;5075734;28;20209;-81
2023/02/13 09:29:47;;;;;;;5.97;3.90;;;8.00;99.90;;;;;;5075680;28;20206;-81
2023/02/13 09:32:15;;;;;;;6.97;4.37;;;8.00;99.90;;;;;;5074600;28;20594;-81
2023/02/13 09:34:42;;;;;;;6.17;3.93;;;8.10;99.90;;;;;;5076490;28;20300;-81
2023/02/13 09:37:09;;;;;;;6.67;3.47;;;8.10;99.90;;;;;;5075649;28;20299;-82
2023/02/13 09:39:36;;;;;;;6.13;3.87;;;8.20;99.90;;;;;;5086720;28;20208;-81
2023/02/13 09:42:04;;;;;;;5.93;3.67;;;8.20;99.90;;;;;;5095893;28;20224;-81
2023/02/13 09:44:37;;;;;;;5.50;3.50;;;8.10;99.90;;;;;;5094796;28;20209;-82
2023/02/13 09:47:13;;;;;;;5.90;3.80;;;8.20;99.90;;;;;;5075672;28;20226;-82
2023/02/13 09:49:44;;;;;;;5.20;3.37;;;8.20;99.90;;;;;;5074303;28;20186;-81
2023/02/13 09:52:11;;;;;;;5.43;3.50;;;8.20;99.90;;;;;;5076010;28;20222;-81
2023/02/13 09:54:38;;;;;;;5.50;3.60;;;8.30;99.90;;;;;;5075341;28;20234;-81
2023/02/13 09:57:15;;;;;;;4.37;3.13;;;8.30;99.90;;;;;;5076185;28;20543;-81
2023/02/13 09:59:55;;;;;;;5.33;3.23;;;8.30;99.90;;;;;;5074979;28;20193;-81
2023/02/13 10:02:47;;;;;;;7.60;3.40;;;8.40;99.90;;;;;;5075339;28;20673;-81
2023/02/13 10:05:24;;;;;;;5.37;3.50;;;8.50;99.90;;;;;;5074172;28;20561;-81
2023/02/13 10:08:01;;;;;;;5.43;3.40;;;8.50;99.90;;;;;;5074627;28;20627;-81
2023/02/13 10:10:34;;;;;;;5.23;3.43;;;8.50;99.90;;;;;;5075440;28;20206;-81
2023/02/13 10:13:16;;;;;;;5.50;3.47;;;8.50;99.90;;;;;;5075913;28;20750;-81
2023/02/13 10:15:48;;;;;;;4.70;2.70;;;8.40;99.90;;;;;;5075859;28;20186;-81
2023/02/13 10:18:19;;;;;;;3.57;2.53;;;8.50;99.90;;;;;;5076335;28;20194;-81
2023/02/13 10:20:51;;;;;;;3.83;2.63;;;8.60;99.90;;;;;;5074977;28;20198;-81
2023/02/13 10:23:23;;;;;;;3.20;2.47;;;8.50;99.90;;;;;;5075443;28;20237;-81
2023/02/13 10:25:56;;;;;;;4.27;2.80;;;8.60;99.90;;;;;;5075226;28;20175;-81
2023/02/13 10:28:30;;;;;;;3.57;2.60;;;8.70;99.90;;;;;;5075087;28;20186;-81
2023/02/13 10:31:02;;;;;;;4.80;3.03;;;8.70;99.90;;;;;;5087877;28;20208;-80
2023/02/13 10:33:35;;;;;;;4.83;2.80;;;8.70;99.90;;;;;;5095276;28;20224;-81
2023/02/13 10:36:07;;;;;;;3.83;2.83;;;8.70;99.90;;;;;;5094608;28;20192;-81
2023/02/13 10:38:37;;;;;;;4.93;3.30;;;8.70;99.90;;;;;;5095002;28;20190;-81
2023/02/13 10:41:14;;;;;;;6.30;3.53;;;8.70;99.90;;;;;;5094773;28;20178;-81
2023/02/13 10:43:58;;;;;;;5.67;3.07;;;8.70;99.90;;;;;;5094270;28;20218;-81
2023/02/13 10:46:35;;;;;;;3.00;2.67;;;8.80;99.90;;;;;;5096047;28;20212;-80
2023/02/13 10:49:30;;;;;;;5.67;2.97;;;9.00;99.90;;;;;;5095612;28;20189;-81
2023/02/13 10:52:07;;;;;;;4.20;2.97;;;8.90;99.90;;;;;;5074943;28;20609;-81
2023/02/13 10:55:04;;;;;;;4.37;2.93;;;8.90;99.90;;;;;;5076672;28;20202;-81
2023/02/13 10:57:46;;;;;;;5.07;2.30;;;9.00;99.90;;;;;;5095085;28;20192;-81
2023/02/13 11:00:22;;;;;;;3.13;2.47;;;9.00;99.90;;;;;;5087313;28;20190;-81
2023/02/13 11:02:49;;;;;;;3.70;2.30;;;8.90;99.90;;;;;;5085136;28;20218;-81
2023/02/13 11:05:21;;;;;;;3.67;1.93;;;9.00;99.90;;;;;;5093787;28;20653;-81
2023/02/13 11:07:49;;;;;;;7.63;2.70;;;8.90;99.90;;;;;;5095941;28;20202;-81
2023/02/13 11:10:18;;;;;;;2.97;2.17;;;8.70;99.90;;;;;;5095142;28;20213;-81
2023/02/13 11:12:46;;;;;;;3.80;2.30;;;9.00;99.90;;;;;;5094644;28;20315;-81
2023/02/13 11:15:26;;;;;;;2.77;1.93;;;9.10;99.90;;;;;;5094689;28;20209;-81
2023/02/13 11:17:54;;;;;;;3.93;2.33;;;9.00;99.90;;;;;;5095057;28;20201;-81
2023/02/13 11:20:30;;;;;;;2.37;1.87;;;9.20;99.90;;;;;;5094819;28;20190;-81
2023/02/13 11:23:25;;;;;;;3.03;2.20;;;9.10;99.90;;;;;;5094646;28;20786;-81
2023/02/13 11:25:59;;;;;;;2.40;2.03;;;9.10;99.90;;;;;;5077783;28;20206;-81
2023/02/13 11:28:28;;;;;;;3.77;2.50;;;9.00;99.90;;;;;;5094762;28;20182;-81
2023/02/13 11:31:10;;;;;;;2.30;1.97;;;9.10;99.90;;;;;;5093862;28;20208;-82
2023/02/13 11:33:37;;;;;;;3.83;2.50;;;9.10;99.90;;;;;;5094965;28;20209;-80
2023/02/13 11:36:08;;;;;;;3.00;1.93;;;9.00;99.90;;;;;;5094498;28;20197;-81
2023/02/13 11:38:35;;;;;;;4.43;2.90;;;9.10;99.90;;;;;;5094594;28;20197;-83
2023/02/13 11:41:07;;;;;;;3.37;2.30;;;8.90;99.90;;;;;;5094532;28;20209;-83
2023/02/13 11:43:37;;;;;;;3.93;2.87;;;8.90;99.90;;;;;;5094371;28;20222;-83
2023/02/13 11:46:07;;;;;;;4.60;2.60;;;9.00;99.90;;;;;;5093882;28;20574;-83
2023/02/13 11:48:34;;;;;;;2.87;2.30;;;9.10;99.90;;;;;;5094308;28;20653;-83
2023/02/13 11:51:02;;;;;;;3.90;2.80;;;9.10;99.90;;;;;;5094180;28;20210;-83
2023/02/13 11:53:35;;;;;;;5.23;3.10;;;9.30;99.90;;;;;;5093889;28;20591;-83
2023/02/13 11:56:06;;;;;;;2.97;2.40;;;9.30;99.90;;;;;;5094123;28;20196;-83
2023/02/13 11:58:33;;;;;;;4.50;2.60;;;9.30;99.90;;;;;;5094038;28;20185;-83
2023/02/13 12:01:24;;;;;;;4.37;3.03;;;9.40;99.90;;;;;;5094491;28;20205;-83
2023/02/13 12:04:16;;;;;;;4.60;2.70;;;9.20;99.90;;;;;;5094190;28;20563;-81
2023/02/13 12:07:00;;;;;;;4.10;3.00;;;9.20;99.90;;;;;;5089819;28;20633;-81
2023/02/13 12:09:30;;;;;;;3.33;2.50;;;9.20;99.90;;;;;;5094005;28;20568;-81
2023/02/13 12:12:01;;;;;;;3.07;2.40;;;9.10;99.90;;;;;;5093542;28;20232;-81
2023/02/13 12:14:32;;;;;;;3.83;2.57;;;9.10;99.90;;;;;;5093527;28;20284;-82
2023/02/13 12:17:04;;;;;;;3.53;2.67;;;9.30;99.90;;;;;;5093817;28;20680;-81
2023/02/13 12:19:36;;;;;;;4.67;2.70;;;9.30;99.90;;;;;;5093839;28;20196;-81
2023/02/13 12:22:18;;;;;;;3.67;2.50;;;9.40;99.90;;;;;;5093324;28;20223;-80
2023/02/13 12:24:59;;;;;;;5.70;2.70;;;9.30;99.90;;;;;;5093773;28;20190;-81
2023/02/13 12:27:33;;;;;;;3.23;2.40;;;9.20;99.90;;;;;;5093452;28;20266;-81
2023/02/13 12:30:16;;;;;;;2.67;2.30;;;9.20;99.90;;;;;;5093440;28;20182;-81
2023/02/13 12:32:52;;;;;;;4.20;2.50;;;9.30;99.90;;;;;;5093118;28;20592;-81
2023/02/13 12:35:32;;;;;;;4.63;2.63;;;9.30;99.90;;;;;;5094361;28;20231;-81
2023/02/13 12:38:03;;;;;;;2.90;2.30;;;9.40;99.90;;;;;;5094793;28;20205;-82
2023/02/13 12:40:46;;;;;;;3.77;2.17;;;9.50;99.90;;;;;;5095307;28;20186;-80
2023/02/13 12:43:44;;;;;;;2.10;1.90;;;9.70;99.90;;;;;;5093635;28;20217;-81
2023/02/13 12:46:20;;;;;;;2.33;2.13;;;9.70;99.90;;;;;;5094013;28;20637;-81
2023/02/13 12:48:52;;;;;;;4.07;2.13;;;9.70;99.90;;;;;;5094940;28;20189;-79
2023/02/13 12:51:44;;;;;;;2.30;2.10;;;9.60;99.90;;;;;;5093874;28;20193;-79
2023/02/13 12:54:37;;;;;;;2.77;2.10;;;9.60;99.90;;;;;;5086165;28;20187;-80
2023/02/13 12:57:18;;;;;;;2.20;1.90;;;9.60;99.90;;;;;;5098220;28;20204;-80
2023/02/13 12:59:59;;;;;;;2.40;1.80;;;9.50;99.90;;;;;;5097128;28;20201;-80
2023/02/13 13:02:47;;;;;;;2.33;1.77;;;9.70;99.90;;;;;;5112112;28;20213;-80
2023/02/13 13:05:28;;;;;;;3.67;2.37;;;9.70;99.90;;;;;;5118181;28;20280;-80
2023/02/13 13:08:22;;;;;;;2.40;1.77;;;9.60;99.90;;;;;;5116103;28;20197;-79
2023/02/13 13:10:58;;;;;;;2.60;1.67;;;9.60;99.90;;;;;;5117039;28;20573;-80
2023/02/13 13:13:40;;;;;;;1.80;1.37;;;9.50;99.90;;;;;;5108045;28;20229;-80
2023/02/13 13:16:17;;;;;;;1.87;1.67;;;9.50;99.90;;;;;;5096300;28;20192;-80
2023/02/13 13:18:57;;;;;;;1.97;1.80;;;9.70;99.90;;;;;;5095734;28;20661;-80
2023/02/13 13:21:35;;;;;;;1.83;1.67;;;9.50;99.90;;;;;;5095735;28;20759;-80
2023/02/13 13:24:09;;;;;;;1.70;1.60;;;9.40;99.90;;;;;;5080230;28;20289;-80
2023/02/13 13:26:40;;;;;;;2.80;1.60;;;9.30;99.90;;;;;;5093094;28;20765;-79
2023/02/13 13:29:15;;;;;;;1.67;1.40;;;9.40;99.90;;;;;;5095458;28;20185;-79
2023/02/13 13:31:47;;;;;;;1.60;1.50;;;9.30;99.90;;;;;;5094262;28;20303;-81
2023/02/13 13:34:20;;;;;;;1.50;1.40;;;9.40;99.90;;;;;;5093273;28;20216;-80
2023/02/13 13:36:50;;;;;;;2.07;1.60;;;9.40;99.90;;;;;;5096051;28;20196;-80
2023/02/13 13:39:32;;;;;;;2.33;1.80;;;9.30;99.90;;;;;;5093892;28;20201;-80
2023/02/13 13:42:08;;;;;;;2.13;1.80;;;9.40;99.90;;;;;;5093974;28;20222;-79
2023/02/13 13:44:54;;;;;;;2.07;1.87;;;9.50;99.90;;;;;;5093357;28;20213;-80
2023/02/13 13:47:29;;;;;;;2.20;1.80;;;9.40;99.90;;;;;;5096471;28;20206;-79
2023/02/13 13:49:58;;;;;;;2.00;1.90;;;9.40;99.90;;;;;;5097306;28;20265;-80
2023/02/13 13:52:28;;;;;;;4.33;2.83;;;9.50;99.90;;;;;;5095740;28;20301;-80
2023/02/13 13:54:56;;;;;;;2.00;1.80;;;9.40;99.90;;;;;;5101987;28;20201;-80
2023/02/13 13:57:23;;;;;;;2.27;2.00;;;9.40;99.90;;;;;;5084363;28;20205;-80
2023/02/13 14:00:15;;;;;;;2.43;1.87;;;9.40;99.90;;;;;;5099752;28;20205;-79